Time;durP1;ratioP1;P1;durP2;ratioP2;P2;SDS_P1;SDS_P2;PMS_P1;PMS_P2;Temp;Humidity;BMP_temperature;BMP_pressure;BME280_temperature;BME280_humidity;BME280_pressure;Samples;Min_cycle;Max_cycle;Signal;HPM_P1;HPM_P2
2022/02/27 00:00:16;;;;;;;12.13;7.87;;;;;;;0.54;85.24;96681.43;1730290;83;21086;-66
2022/02/27 00:02:44;;;;;;;15.10;8.97;;;;;;;0.55;85.06;96677.12;1729990;82;20996;-66
2022/02/27 00:05:11;;;;;;;15.97;9.50;;;;;;;0.46;85.20;96678.97;1730155;83;21007;-65
2022/02/27 00:07:38;;;;;;;16.67;10.30;;;;;;;0.47;85.28;96682.44;1730228;82;21063;-65
2022/02/27 00:10:07;;;;;;;18.70;11.33;;;;;;;0.52;85.36;96677.89;1730308;83;21107;-65
2022/02/27 00:12:34;;;;;;;18.37;12.30;;;;;;;0.57;85.27;96685.44;1730249;83;21536;-65
2022/02/27 00:15:01;;;;;;;16.60;11.93;;;;;;;0.57;85.20;96688.03;1730217;83;21023;-66
2022/02/27 00:17:27;;;;;;;17.23;9.93;;;;;;;0.55;84.96;96679.72;1730437;82;21465;-66
2022/02/27 00:19:54;;;;;;;21.77;12.37;;;;;;;0.53;85.08;96680.06;1730210;82;21011;-66
2022/02/27 00:22:20;;;;;;;25.87;13.47;;;;;;;0.50;85.19;96672.17;1730485;82;20995;-65
2022/02/27 00:24:47;;;;;;;21.37;11.87;;;;;;;0.50;85.30;96677.36;1730359;82;21480;-66
2022/02/27 00:27:13;;;;;;;25.20;14.43;;;;;;;0.42;85.46;96668.86;1730399;83;21548;-65
2022/02/27 00:29:40;;;;;;;18.10;11.20;;;;;;;0.43;85.25;96673.67;1730360;82;21046;-66
2022/02/27 00:32:07;;;;;;;17.73;10.40;;;;;;;0.42;85.23;96678.37;1730351;83;21023;-66
2022/02/27 00:34:34;;;;;;;17.13;10.13;;;;;;;0.46;85.29;96671.60;1730403;82;21485;-65
2022/02/27 00:37:01;;;;;;;16.90;10.50;;;;;;;0.42;85.15;96682.27;1730266;82;21031;-66
2022/02/27 00:39:28;;;;;;;15.17;9.43;;;;;;;0.39;85.15;96671.77;1730544;83;21004;-66
2022/02/27 00:41:55;;;;;;;17.87;10.60;;;;;;;0.36;85.26;96672.96;1730386;83;21014;-66
2022/02/27 00:44:22;;;;;;;17.53;11.23;;;;;;;0.37;85.17;96670.41;1730345;83;21007;-66
2022/02/27 00:46:49;;;;;;;13.77;9.07;;;;;;;0.38;85.16;96674.78;1730363;83;20995;-66
2022/02/27 00:49:16;;;;;;;16.07;9.60;;;;;;;0.39;85.08;96676.97;1730463;82;21087;-65
2022/02/27 00:51:42;;;;;;;14.27;9.23;;;;;;;0.41;85.01;96683.98;1730144;83;21007;-66
2022/02/27 00:54:09;;;;;;;12.07;8.00;;;;;;;0.40;84.73;96680.92;1742690;81;21050;-65
2022/02/27 00:56:36;;;;;;;12.07;8.57;;;;;;;0.36;84.69;96684.22;1759165;81;21595;-66
2022/02/27 00:59:03;;;;;;;13.97;9.43;;;;;;;0.34;84.59;96687.17;1759120;81;20995;-65
2022/02/27 01:01:30;;;;;;;13.87;8.57;;;;;;;0.35;84.76;96685.06;1759126;81;21122;-65
2022/02/27 01:03:57;;;;;;;16.80;9.40;;;;;;;0.33;84.69;96684.11;1759119;81;21002;-65
2022/02/27 01:06:24;;;;;;;15.87;10.50;;;;;;;0.36;84.75;96686.81;1759043;81;21015;-65
2022/02/27 01:08:51;;;;;;;19.30;10.53;;;;;;;0.39;84.62;96688.22;1759132;81;21034;-65
2022/02/27 01:11:17;;;;;;;22.80;14.00;;;;;;;0.35;84.47;96681.55;1759282;81;21576;-65
2022/02/27 01:13:44;;;;;;;18.47;10.53;;;;;;;0.34;84.50;96689.77;1759111;81;21453;-65
2022/02/27 01:16:10;;;;;;;19.57;11.60;;;;;;;0.26;84.99;96686.00;1759005;81;21075;-65
2022/02/27 01:18:37;;;;;;;19.87;11.73;;;;;;;0.24;85.12;96682.45;1759177;81;21046;-65
2022/02/27 01:21:03;;;;;;;20.77;12.20;;;;;;;0.24;85.17;96684.17;1729618;81;21006;-66
2022/02/27 01:23:32;;;;;;;19.47;11.50;;;;;;;0.18;85.41;96677.03;1759039;81;20983;-66
2022/02/27 01:25:58;;;;;;;19.83;13.27;;;;;;;0.18;85.37;96680.52;1759147;81;20979;-66
2022/02/27 01:28:25;;;;;;;22.03;12.37;;;;;;;0.18;85.42;96679.63;1759156;81;21007;-66
2022/02/27 01:30:51;;;;;;;23.60;14.33;;;;;;;0.18;85.85;96677.91;1759084;81;21537;-66
2022/02/27 01:33:18;;;;;;;22.83;15.27;;;;;;;0.15;85.83;96676.50;1759078;81;20987;-66
2022/02/27 01:35:45;;;;;;;21.70;13.63;;;;;;;0.20;85.65;96675.36;1758990;81;21106;-69
2022/02/27 01:38:13;;;;;;;29.00;16.20;;;;;;;0.23;85.81;96674.59;1759260;81;21508;-65
2022/02/27 01:40:40;;;;;;;33.33;18.10;;;;;;;0.25;85.87;96679.44;1759027;81;21015;-65
2022/02/27 01:43:06;;;;;;;27.83;15.27;;;;;;;0.23;85.85;96676.80;1759217;81;21524;-66
2022/02/27 01:45:33;;;;;;;25.63;13.80;;;;;;;0.25;85.82;96678.14;1759042;81;21083;-66
2022/02/27 01:47:59;;;;;;;18.40;11.37;;;;;;;0.24;85.85;96675.96;1759190;81;21034;-65
2022/02/27 01:50:26;;;;;;;20.57;12.63;;;;;;;0.22;85.75;96676.31;1758888;81;21015;-69
2022/02/27 01:52:53;;;;;;;18.57;11.90;;;;;;;0.24;85.84;96678.98;1754679;81;21597;-65
2022/02/27 01:55:20;;;;;;;25.00;12.80;;;;;;;0.27;85.89;96671.30;1759064;81;21026;-65
2022/02/27 01:57:47;;;;;;;17.80;10.73;;;;;;;0.29;85.83;96673.55;1758980;81;21006;-65
2022/02/27 02:00:15;;;;;;;18.53;10.87;;;;;;;0.29;85.66;96670.53;1754520;81;21046;-65
2022/02/27 02:02:44;;;;;;;16.73;10.47;;;;;;;0.28;85.55;96672.67;1759095;81;21054;-65
2022/02/27 02:05:13;;;;;;;13.00;9.40;;;;;;;0.30;85.43;96674.00;1758986;81;21110;-65
2022/02/27 02:07:41;;;;;;;18.93;11.23;;;;;;;0.34;85.30;96670.30;1758954;81;21051;-65
2022/02/27 02:10:09;;;;;;;20.37;11.47;;;;;;;0.35;85.21;96671.17;1759070;81;21018;-66
2022/02/27 02:12:37;;;;;;;21.90;11.73;;;;;;;0.25;85.10;96668.63;1758919;81;21054;-66
2022/02/27 02:15:06;;;;;;;18.87;12.13;;;;;;;0.27;85.11;96664.81;1759024;81;21477;-66
2022/02/27 02:17:36;;;;;;;19.63;11.93;;;;;;;0.22;84.86;96669.82;1759121;81;21552;-66
2022/02/27 02:20:06;;;;;;;24.90;13.00;;;;;;;0.20;85.21;96667.19;1759014;81;21425;-65
2022/02/27 02:22:34;;;;;;;22.67;13.10;;;;;;;0.19;85.39;96671.00;1758927;81;21042;-66
2022/02/27 02:25:01;;;;;;;27.07;13.70;;;;;;;0.21;85.66;96679.74;1758800;81;21050;-65
2022/02/27 02:27:32;;;;;;;24.73;13.70;;;;;;;0.23;85.47;96678.48;1759126;81;20963;-66
2022/02/27 02:29:58;;;;;;;29.97;14.77;;;;;;;0.20;85.51;96680.55;1759087;81;21033;-66
2022/02/27 02:32:25;;;;;;;17.70;11.07;;;;;;;0.30;85.70;96677.48;1759031;81;21090;-65
2022/02/27 02:34:52;;;;;;;17.80;11.33;;;;;;;0.39;85.64;96679.56;1759048;81;21464;-65
2022/02/27 02:37:19;;;;;;;17.73;11.33;;;;;;;0.40;85.31;96684.82;1758852;81;21062;-66
2022/02/27 02:39:46;;;;;;;23.37;12.60;;;;;;;0.47;85.26;96682.02;1759063;81;21511;-65
2022/02/27 02:42:13;;;;;;;23.37;12.17;;;;;;;0.52;85.31;96681.78;1759023;81;21091;-65
2022/02/27 02:44:41;;;;;;;19.07;11.60;;;;;;;0.49;84.55;96675.19;1759111;80;21453;-65
2022/02/27 02:47:08;;;;;;;19.80;12.00;;;;;;;0.47;84.31;96682.02;1759160;81;21030;-65
2022/02/27 02:49:34;;;;;;;22.40;11.97;;;;;;;0.46;84.13;96681.56;1759129;81;21030;-66
2022/02/27 02:52:01;;;;;;;17.73;10.87;;;;;;;0.46;84.29;96675.08;1754140;81;21042;-65
2022/02/27 02:54:28;;;;;;;13.17;9.63;;;;;;;0.45;84.18;96680.20;1758916;81;21050;-65
2022/02/27 02:56:55;;;;;;;14.33;10.30;;;;;;;0.44;84.19;96676.72;1758975;81;21069;-65
2022/02/27 02:59:24;;;;;;;15.57;10.13;;;;;;;0.38;83.71;96687.77;1759102;81;21537;-65
2022/02/27 03:01:50;;;;;;;18.20;10.43;;;;;;;0.39;83.85;96673.95;1759009;81;21011;-66
2022/02/27 03:04:17;;;;;;;16.23;11.00;;;;;;;0.42;84.03;96683.56;1758990;81;21042;-66
2022/02/27 03:06:44;;;;;;;19.13;11.87;;;;;;;0.41;83.87;96681.39;1754270;81;21062;-66
2022/02/27 03:09:11;;;;;;;17.20;10.60;;;;;;;0.41;83.80;96682.69;1759026;81;21492;-65
2022/02/27 03:11:37;;;;;;;19.10;11.17;;;;;;;0.45;83.74;96682.80;1759033;81;20979;-65
2022/02/27 03:14:04;;;;;;;19.30;12.13;;;;;;;0.40;83.47;96683.91;1758989;81;21481;-66
2022/02/27 03:16:31;;;;;;;19.63;12.03;;;;;;;0.37;83.52;96686.40;1759084;81;20991;-66
2022/02/27 03:18:58;;;;;;;17.23;10.37;;;;;;;0.38;83.71;96683.88;1758975;81;21535;-66
2022/02/27 03:21:25;;;;;;;14.73;10.10;;;;;;;0.36;83.45;96691.13;1758718;81;20998;-66
2022/02/27 03:23:52;;;;;;;16.33;10.33;;;;;;;0.31;83.48;96693.55;1758943;81;21071;-65
2022/02/27 03:26:21;;;;;;;15.87;10.13;;;;;;;0.32;83.83;96691.41;1759003;81;20956;-66
2022/02/27 03:28:50;;;;;;;14.50;9.37;;;;;;;0.35;83.80;96688.05;1758621;81;21011;-65
2022/02/27 03:31:18;;;;;;;16.53;10.70;;;;;;;0.38;83.79;96690.36;1759080;81;21136;-65
2022/02/27 03:33:44;;;;;;;17.00;9.93;;;;;;;0.38;83.51;96681.70;1758976;81;21010;-66
2022/02/27 03:36:11;;;;;;;16.83;9.77;;;;;;;0.33;83.16;96691.91;1758849;81;21030;-66
2022/02/27 03:38:38;;;;;;;16.30;10.73;;;;;;;0.30;83.26;96682.67;1758945;81;21133;-66
2022/02/27 03:41:06;;;;;;;15.03;9.37;;;;;;;0.32;83.37;96687.94;1759080;81;21023;-66
2022/02/27 03:43:33;;;;;;;13.57;9.47;;;;;;;0.27;82.92;96690.77;1758896;81;21015;-65
2022/02/27 03:46:00;;;;;;;29.53;13.47;;;;;;;0.25;82.79;96688.52;1758994;81;21488;-65
2022/02/27 03:48:27;;;;;;;30.17;14.23;;;;;;;0.19;82.60;96690.05;1758962;81;21010;-65
2022/02/27 03:50:54;;;;;;;13.10;8.30;;;;;;;0.08;82.36;96684.87;1758879;81;21065;-65
2022/02/27 03:53:22;;;;;;;16.53;10.00;;;;;;;-0.02;82.47;96687.93;1758740;81;21469;-65
2022/02/27 03:55:49;;;;;;;17.87;10.30;;;;;;;-0.11;82.63;96681.06;1743923;81;21036;-65
2022/02/27 03:58:15;;;;;;;18.70;11.57;;;;;;;-0.19;82.80;96685.95;1761577;81;21530;-66
2022/02/27 04:00:42;;;;;;;21.83;12.20;;;;;;;-0.28;83.47;96681.30;1761662;81;21516;-65
2022/02/27 04:03:10;;;;;;;17.40;11.07;;;;;;;-0.35;83.11;96678.36;1761679;81;21065;-65
2022/02/27 04:05:37;;;;;;;23.67;12.60;;;;;;;-0.41;83.08;96682.01;1761629;81;21005;-65
2022/02/27 04:08:04;;;;;;;20.47;10.47;;;;;;;-0.42;83.62;96676.36;1761643;81;21077;-65
2022/02/27 04:10:31;;;;;;;16.27;9.83;;;;;;;-0.49;83.62;96673.92;1761584;81;21005;-65
2022/02/27 04:12:58;;;;;;;22.10;12.37;;;;;;;-0.60;83.61;96679.09;1761746;81;21056;-65
2022/02/27 04:15:25;;;;;;;23.33;13.47;;;;;;;-0.65;84.07;96685.37;1761784;81;20985;-66
2022/02/27 04:17:51;;;;;;;22.23;11.73;;;;;;;-0.69;84.21;96684.33;1761466;81;21005;-66
2022/02/27 04:20:19;;;;;;;19.07;10.13;;;;;;;-0.79;84.10;96685.18;1761624;81;21040;-66
2022/02/27 04:22:45;;;;;;;15.10;8.23;;;;;;;-0.90;84.14;96685.61;1761550;81;21064;-66
2022/02/27 04:25:12;;;;;;;15.23;8.80;;;;;;;-0.97;84.30;96696.94;1761676;81;20962;-65
2022/02/27 04:27:39;;;;;;;15.50;7.87;;;;;;;-1.09;84.24;96686.92;1761837;81;21571;-66
2022/02/27 04:30:07;;;;;;;11.87;7.57;;;;;;;-1.20;84.33;96685.58;1761663;81;21017;-65
2022/02/27 04:32:33;;;;;;;27.37;13.20;;;;;;;-1.31;84.55;96693.77;1761645;81;20997;-65
2022/02/27 04:35:00;;;;;;;25.17;13.70;;;;;;;-1.42;85.14;96694.97;1761614;81;21055;-65
2022/02/27 04:37:27;;;;;;;19.37;11.63;;;;;;;-1.47;85.04;96692.58;1761646;81;21032;-65
2022/02/27 04:39:53;;;;;;;26.13;14.73;;;;;;;-1.57;85.27;96696.86;1761599;81;21002;-65
2022/02/27 04:42:19;;;;;;;21.27;12.90;;;;;;;-1.60;85.21;96698.02;1761771;81;21045;-65
2022/02/27 04:44:46;;;;;;;25.00;15.13;;;;;;;-1.70;84.81;96697.12;1761598;81;20997;-66
2022/02/27 04:47:12;;;;;;;31.23;15.33;;;;;;;-1.78;85.00;96698.06;1761608;81;20997;-65
2022/02/27 04:49:39;;;;;;;26.43;12.87;;;;;;;-1.78;85.05;96696.77;1761720;81;21037;-65
2022/02/27 04:52:06;;;;;;;11.57;7.07;;;;;;;-1.86;84.84;96703.30;1761545;81;20966;-65
2022/02/27 04:54:35;;;;;;;11.23;6.87;;;;;;;-1.91;84.79;96696.61;1761809;81;21515;-65
2022/02/27 04:57:02;;;;;;;14.63;7.33;;;;;;;-1.92;84.69;96702.98;1764962;81;21028;-65
2022/02/27 04:59:29;;;;;;;10.47;6.70;;;;;;;-1.98;84.55;96699.30;1764449;81;20961;-65
2022/02/27 05:01:56;;;;;;;14.77;8.77;;;;;;;-2.08;84.18;96698.80;1765029;81;21095;-65
2022/02/27 05:04:23;;;;;;;28.13;14.87;;;;;;;-2.27;83.91;96700.89;1745106;82;21074;-66
2022/02/27 05:06:49;;;;;;;28.47;14.07;;;;;;;-2.37;84.28;96706.43;1745249;82;21018;-66
2022/02/27 05:09:19;;;;;;;40.63;20.93;;;;;;;-2.49;85.11;96713.20;1745321;82;21050;-66
2022/02/27 05:11:45;;;;;;;34.20;16.60;;;;;;;-2.55;85.56;96713.76;1736955;81;21114;-65
2022/02/27 05:14:13;;;;;;;32.80;17.80;;;;;;;-2.58;85.30;96712.73;1764840;81;20967;-65
2022/02/27 05:16:40;;;;;;;49.83;22.77;;;;;;;-2.66;85.92;96711.94;1764793;81;21018;-65
2022/02/27 05:19:07;;;;;;;58.40;27.03;;;;;;;-2.70;85.92;96721.63;1764713;81;20983;-65
2022/02/27 05:21:34;;;;;;;137.73;57.40;;;;;;;-2.74;85.99;96721.42;1764560;81;21058;-65
2022/02/27 05:24:01;;;;;;;88.60;37.87;;;;;;;-2.79;86.55;96725.06;1764594;81;21504;-65
2022/02/27 05:26:28;;;;;;;169.33;64.70;;;;;;;-2.73;86.79;96730.52;1764695;81;21058;-66
2022/02/27 05:28:54;;;;;;;140.60;55.87;;;;;;;-2.78;86.62;96731.98;1764736;81;21485;-65
2022/02/27 05:31:21;;;;;;;162.17;62.70;;;;;;;-2.72;86.68;96728.44;1764749;81;21035;-65
2022/02/27 05:33:47;;;;;;;201.47;74.27;;;;;;;-2.70;86.92;96731.96;1764792;81;21530;-66
2022/02/27 05:36:14;;;;;;;301.97;101.83;;;;;;;-2.69;86.75;96733.75;1764743;81;21038;-65
2022/02/27 05:38:41;;;;;;;396.73;121.00;;;;;;;-2.62;86.69;96731.97;1764628;81;21105;-65
2022/02/27 05:41:08;;;;;;;310.33;107.73;;;;;;;-2.53;86.43;96740.98;1736997;81;21535;-65
2022/02/27 05:43:35;;;;;;;281.50;97.43;;;;;;;-2.57;85.95;96743.83;1764564;81;21085;-65
2022/02/27 05:46:01;;;;;;;77.20;34.57;;;;;;;-2.53;85.87;96738.39;1764733;81;20983;-65
2022/02/27 05:48:28;;;;;;;138.83;59.97;;;;;;;-2.51;85.87;96745.41;1764740;81;21010;-66
2022/02/27 05:50:54;;;;;;;157.07;65.93;;;;;;;-2.51;86.00;96744.13;1764747;81;20999;-65
2022/02/27 05:53:21;;;;;;;210.03;85.90;;;;;;;-2.38;86.28;96747.32;1764522;81;21078;-66
2022/02/27 05:55:50;;;;;;;175.47;75.83;;;;;;;-2.27;86.13;96750.92;1747519;81;21541;-65
2022/02/27 05:58:16;;;;;;;186.43;77.57;;;;;;;-2.13;86.06;96758.46;1730545;82;21121;-66
2022/02/27 06:00:43;;;;;;;141.87;61.60;;;;;;;-2.02;85.48;96756.86;1730491;83;21015;-65
2022/02/27 06:03:09;;;;;;;105.63;49.33;;;;;;;-1.96;84.83;96762.75;1730374;82;21046;-65
2022/02/27 06:05:36;;;;;;;80.03;40.63;;;;;;;-1.85;85.07;96769.31;1730577;82;21516;-66
2022/02/27 06:08:02;;;;;;;88.97;49.13;;;;;;;-1.78;84.31;96769.21;1730423;83;21485;-66
2022/02/27 06:10:29;;;;;;;68.67;38.07;;;;;;;-1.75;83.96;96782.28;1730378;83;21019;-65
2022/02/27 06:12:56;;;;;;;88.83;45.67;;;;;;;-1.72;84.24;96785.42;1730444;82;20984;-65
2022/02/27 06:15:22;;;;;;;71.40;34.43;;;;;;;-1.75;83.58;96794.81;1730553;82;21051;-65
2022/02/27 06:17:49;;;;;;;83.57;42.57;;;;;;;-1.76;83.63;96791.76;1730474;83;21505;-66
2022/02/27 06:20:15;;;;;;;128.00;64.27;;;;;;;-1.80;83.35;96798.00;1730338;83;21030;-65
2022/02/27 06:22:48;;;;;;;83.20;46.10;;;;;;;-1.77;83.95;96798.14;1730353;82;21031;-65
2022/02/27 06:25:18;;;;;;;72.13;42.67;;;;;;;-1.61;84.39;96801.95;1730479;82;21524;-65
2022/02/27 06:27:45;;;;;;;51.30;29.53;;;;;;;-1.57;83.94;96800.38;1730323;83;21030;-65
2022/02/27 06:30:18;;;;;;;54.77;29.43;;;;;;;-1.44;83.75;96807.02;1730292;82;21561;-65
2022/02/27 06:32:48;;;;;;;37.07;22.20;;;;;;;-1.30;83.72;96805.97;1730008;82;21062;-65
2022/02/27 06:35:18;;;;;;;30.17;17.37;;;;;;;-1.07;83.76;96806.14;1730369;83;21461;-65
2022/02/27 06:37:46;;;;;;;29.47;17.07;;;;;;;-0.87;83.41;96811.81;1730099;82;21062;-65
2022/02/27 06:40:13;;;;;;;28.57;15.23;;;;;;;-0.68;83.03;96812.20;1730251;83;21516;-66
2022/02/27 06:42:40;;;;;;;25.83;13.90;;;;;;;-0.55;81.87;96808.48;1730293;82;21018;-66
2022/02/27 06:45:10;;;;;;;17.30;11.17;;;;;;;-0.43;81.49;96801.20;1730247;83;21086;-66
2022/02/27 06:47:36;;;;;;;18.23;10.43;;;;;;;-0.38;81.20;96805.30;1718069;83;20987;-66
2022/02/27 06:50:05;;;;;;;18.47;9.87;;;;;;;-0.33;80.05;96805.99;1730283;82;21078;-65
2022/02/27 06:52:32;;;;;;;18.03;11.30;;;;;;;-0.32;79.01;96805.58;1730136;82;21469;-66
2022/02/27 06:54:59;;;;;;;20.23;12.50;;;;;;;-0.28;79.44;96804.86;1730169;83;21003;-66
2022/02/27 06:57:25;;;;;;;17.77;12.40;;;;;;;-0.31;78.43;96811.23;1742569;82;21039;-65
2022/02/27 06:59:52;;;;;;;18.77;13.20;;;;;;;-0.26;78.81;96808.42;1730152;82;21018;-65
2022/02/27 07:02:18;;;;;;;18.17;12.63;;;;;;;-0.15;78.66;96807.56;1730447;82;21055;-65
2022/02/27 07:04:45;;;;;;;17.93;12.77;;;;;;;-0.03;78.11;96805.48;1730386;82;21050;-66
2022/02/27 07:07:12;;;;;;;21.10;13.17;;;;;;;0.02;76.92;96812.17;1730136;82;21015;-65
2022/02/27 07:09:38;;;;;;;21.60;13.33;;;;;;;0.10;77.39;96812.07;1730269;82;21513;-65
2022/02/27 07:12:06;;;;;;;32.73;19.23;;;;;;;0.25;78.05;96812.70;1730261;82;21066;-65
2022/02/27 07:14:32;;;;;;;39.80;22.00;;;;;;;0.41;77.62;96813.80;1730375;83;21039;-65
2022/02/27 07:16:59;;;;;;;23.60;16.03;;;;;;;0.58;77.54;96814.48;1730329;82;21026;-65
2022/02/27 07:19:26;;;;;;;21.27;13.30;;;;;;;0.74;77.14;96818.98;1730365;83;21492;-65
2022/02/27 07:21:52;;;;;;;20.37;12.03;;;;;;;0.82;76.35;96817.55;1730131;82;20983;-66
2022/02/27 07:24:19;;;;;;;18.07;12.70;;;;;;;0.96;76.86;96826.77;1730251;82;20991;-66
2022/02/27 07:26:46;;;;;;;17.40;11.90;;;;;;;1.08;76.69;96818.53;1730110;83;21034;-66
2022/02/27 07:29:12;;;;;;;18.43;11.80;;;;;;;1.18;76.65;96827.56;1730272;83;20995;-65
2022/02/27 07:31:39;;;;;;;17.10;9.93;;;;;;;1.26;75.43;96819.62;1730320;82;21006;-66
2022/02/27 07:34:05;;;;;;;20.17;11.90;;;;;;;1.32;74.71;96817.69;1730378;83;21010;-66
2022/02/27 07:36:33;;;;;;;18.83;11.80;;;;;;;1.37;75.31;96822.22;1730232;82;21526;-65
2022/02/27 07:39:00;;;;;;;19.43;10.67;;;;;;;1.48;74.68;96822.61;1730201;82;21536;-65
2022/02/27 07:41:27;;;;;;;15.87;10.07;;;;;;;1.56;74.04;96824.18;1730164;82;21058;-65
2022/02/27 07:43:53;;;;;;;16.13;10.27;;;;;;;1.60;73.75;96824.35;1730365;82;21038;-65
2022/02/27 07:46:20;;;;;;;16.00;10.20;;;;;;;1.59;72.77;96829.09;1730305;83;21023;-65
2022/02/27 07:48:46;;;;;;;16.03;9.93;;;;;;;1.57;73.19;96828.16;1730257;82;21043;-65
2022/02/27 07:51:13;;;;;;;13.40;9.10;;;;;;;1.66;72.74;96832.39;1730308;83;21095;-65
2022/02/27 07:53:40;;;;;;;15.27;9.27;;;;;;;1.79;72.67;96826.30;1730347;82;21007;-66
2022/02/27 07:56:06;;;;;;;16.67;10.57;;;;;;;1.80;72.09;96825.06;1730164;82;21046;-66
2022/02/27 07:58:32;;;;;;;17.10;11.07;;;;;;;1.93;72.39;96825.95;1730197;82;21070;-66
2022/02/27 08:00:59;;;;;;;13.90;8.60;;;;;;;2.08;71.90;96827.31;1730316;83;20999;-66
2022/02/27 08:03:25;;;;;;;17.10;9.57;;;;;;;2.22;72.00;96831.28;1717765;83;21517;-66
2022/02/27 08:05:52;;;;;;;15.73;10.20;;;;;;;2.35;71.13;96822.15;1730329;82;21075;-66
2022/02/27 08:08:19;;;;;;;15.80;10.07;;;;;;;2.51;70.59;96825.70;1730210;83;21064;-66
2022/02/27 08:10:45;;;;;;;16.23;10.53;;;;;;;2.70;70.21;96822.41;1730117;82;20999;-65
2022/02/27 08:13:12;;;;;;;14.10;10.03;;;;;;;2.75;70.26;96819.52;1730328;82;21481;-65
2022/02/27 08:15:38;;;;;;;19.77;11.90;;;;;;;2.82;69.21;96808.42;1730134;82;21120;-65
2022/02/27 08:18:05;;;;;;;15.60;10.60;;;;;;;2.99;69.72;96804.61;1730210;83;21019;-65
2022/02/27 08:20:33;;;;;;;16.27;11.53;;;;;;;3.02;68.75;96803.81;1730187;83;20995;-65
2022/02/27 08:23:00;;;;;;;20.40;12.17;;;;;;;3.11;68.79;96801.92;1730165;82;20976;-70
2022/02/27 08:25:27;;;;;;;22.27;13.23;;;;;;;3.21;68.11;96803.53;1730173;82;20980;-65
2022/02/27 08:27:53;;;;;;;22.33;13.93;;;;;;;3.34;68.12;96793.45;1730330;82;21062;-65
2022/02/27 08:30:20;;;;;;;18.07;12.00;;;;;;;3.54;68.52;96797.94;1730158;82;20991;-66
2022/02/27 08:32:50;;;;;;;14.43;10.43;;;;;;;3.68;66.94;96788.77;1742412;82;21016;-65
2022/02/27 08:35:18;;;;;;;15.77;9.87;;;;;;;3.67;66.98;96791.77;1730252;83;21030;-66
2022/02/27 08:37:45;;;;;;;12.00;8.93;;;;;;;3.66;66.93;96782.62;1730239;83;21019;-66
2022/02/27 08:40:12;;;;;;;14.30;8.93;;;;;;;3.67;66.39;96780.03;1730269;82;20999;-66
2022/02/27 08:42:39;;;;;;;15.17;10.00;;;;;;;3.86;65.52;96774.02;1730439;83;21497;-66
2022/02/27 08:45:07;;;;;;;13.73;8.87;;;;;;;4.01;65.23;96768.31;1730284;83;21007;-65
2022/02/27 08:47:33;;;;;;;13.23;9.03;;;;;;;4.13;64.56;96767.29;1730386;82;21091;-66
2022/02/27 08:50:00;;;;;;;13.77;9.30;;;;;;;4.14;63.10;96769.08;1730380;82;20967;-66
2022/02/27 08:52:26;;;;;;;17.67;9.50;;;;;;;4.24;63.91;96772.38;1730306;82;21533;-66
2022/02/27 08:54:53;;;;;;;18.43;12.73;;;;;;;4.42;63.42;96773.67;1730262;83;20987;-66
2022/02/27 08:57:20;;;;;;;17.90;11.87;;;;;;;4.48;63.18;96762.92;1730337;82;21497;-66
2022/02/27 08:59:46;;;;;;;20.30;12.83;;;;;;;4.57;62.03;96762.70;1729959;83;21126;-66
2022/02/27 09:02:13;;;;;;;21.30;14.77;;;;;;;4.54;61.41;96761.78;1730332;82;21031;-66
2022/02/27 09:04:39;;;;;;;17.13;13.27;;;;;;;4.60;61.23;96758.42;1730442;82;21015;-66
2022/02/27 09:07:06;;;;;;;18.00;11.73;;;;;;;4.54;60.69;96753.06;1730103;83;21480;-65
2022/02/27 09:09:34;;;;;;;22.83;12.97;;;;;;;4.67;61.46;96752.92;1730343;82;21047;-66
2022/02/27 09:12:04;;;;;;;17.87;12.53;;;;;;;4.87;61.11;96754.68;1730233;83;21002;-66
2022/02/27 09:14:30;;;;;;;20.13;13.20;;;;;;;4.82;60.84;96753.70;1730511;83;21087;-66
2022/02/27 09:16:56;;;;;;;19.77;13.00;;;;;;;4.93;61.59;96752.19;1730391;82;21031;-66
2022/02/27 09:19:23;;;;;;;18.23;11.63;;;;;;;4.72;61.66;96757.40;1730021;83;20998;-66
2022/02/27 09:21:49;;;;;;;18.63;12.43;;;;;;;4.81;62.72;96748.86;1730578;82;20967;-66
2022/02/27 09:24:16;;;;;;;16.37;11.90;;;;;;;4.90;62.15;96752.13;1730194;83;21075;-66
2022/02/27 09:26:45;;;;;;;18.80;12.60;;;;;;;4.98;61.86;96748.81;1730276;82;21018;-66
2022/02/27 09:29:13;;;;;;;15.73;11.27;;;;;;;4.80;62.63;96752.77;1730321;83;21047;-66
2022/02/27 09:31:41;;;;;;;13.37;9.53;;;;;;;4.80;62.95;96748.84;1730550;82;21529;-66
2022/02/27 09:34:09;;;;;;;16.00;11.33;;;;;;;4.59;62.52;96749.25;1730274;82;21091;-66
2022/02/27 09:36:37;;;;;;;16.83;11.07;;;;;;;4.76;63.74;96738.73;1730463;82;21022;-66
2022/02/27 09:39:05;;;;;;;13.13;8.87;;;;;;;4.88;63.77;96738.13;1730194;82;21146;-66
2022/02/27 09:41:32;;;;;;;12.67;8.67;;;;;;;4.95;64.17;96739.59;1730305;82;21520;-66
2022/02/27 09:44:01;;;;;;;11.93;9.43;;;;;;;5.04;63.73;96738.02;1730296;83;20964;-66
2022/02/27 09:46:30;;;;;;;13.73;8.90;;;;;;;5.06;64.02;96741.55;1730384;82;20976;-66
2022/02/27 09:48:58;;;;;;;11.53;8.73;;;;;;;5.08;63.71;96746.41;1730237;82;21091;-66
2022/02/27 09:51:25;;;;;;;12.87;7.83;;;;;;;5.17;64.23;96747.48;1730352;82;21007;-65
2022/02/27 09:53:52;;;;;;;8.20;6.57;;;;;;;5.30;63.94;96741.20;1730277;83;21529;-66
2022/02/27 09:56:20;;;;;;;8.93;5.40;;;;;;;5.56;64.01;96742.58;1735011;81;21551;-66
2022/02/27 09:58:47;;;;;;;7.50;5.10;;;;;;;5.66;59.62;96740.14;1759120;81;21592;-65
2022/02/27 10:01:14;;;;;;;7.47;4.80;;;;;;;5.53;58.89;96739.91;1759006;81;21532;-66
2022/02/27 10:03:41;;;;;;;8.30;4.50;;;;;;;5.55;59.10;96742.56;1759234;81;21008;-66
2022/02/27 10:06:16;;;;;;;6.40;3.60;;;;;;;5.60;59.20;96740.48;1759051;81;21002;-66
2022/02/27 10:08:55;;;;;;;9.47;3.27;;;;;;;5.70;57.53;96745.91;1758186;81;21102;-69
2022/02/27 10:11:21;;;;;;;5.57;3.23;;;;;;;5.57;54.67;96733.89;1735551;81;21007;-66
2022/02/27 10:13:55;;;;;;;4.30;2.87;;;;;;;5.41;54.85;96740.54;1759130;81;21573;-66
2022/02/27 10:16:27;;;;;;;3.52;2.77;;;;;;;5.33;55.22;96738.64;1759166;81;20959;-66
2022/02/27 10:19:00;;;;;;;5.35;2.77;;;;;;;5.38;56.95;96738.30;1759278;81;21035;-66
2022/02/27 10:21:37;;;;;;;4.30;2.70;;;;;;;5.46;57.36;96740.63;1759185;81;21480;-66
2022/02/27 10:24:09;;;;;;;5.33;3.23;;;;;;;5.48;53.44;96741.98;1758972;81;21014;-66
2022/02/27 10:26:39;;;;;;;6.10;2.80;;;;;;;5.32;53.64;96743.00;1739955;81;21039;-66
2022/02/27 10:29:13;;;;;;;5.57;3.07;;;;;;;5.40;53.34;96738.78;1758964;81;21026;-66
2022/02/27 10:31:43;;;;;;;6.00;3.63;;;;;;;5.41;54.32;96739.23;1759045;81;21026;-66
2022/02/27 10:34:28;;;;;;;4.73;3.00;;;;;;;5.51;53.74;96734.19;1759031;81;20984;-66
2022/02/27 10:37:09;;;;;;;4.03;2.53;;;;;;;5.47;51.84;96726.72;1758966;81;21508;-65
2022/02/27 10:39:51;;;;;;;5.10;2.93;;;;;;;5.48;53.77;96732.83;1758744;81;21003;-65
2022/02/27 10:42:27;;;;;;;4.20;2.20;;;;;;;5.71;53.87;96727.59;1759117;81;21010;-66
2022/02/27 10:45:01;;;;;;;5.73;3.07;;;;;;;5.76;52.77;96725.94;1759024;81;20995;-66
2022/02/27 10:47:34;;;;;;;5.30;3.43;;;;;;;6.01;50.27;96727.72;1759303;81;21079;-66
2022/02/27 10:50:11;;;;;;;5.17;3.55;;;;;;;6.31;50.89;96717.30;1758797;81;20963;-66
2022/02/27 10:52:45;;;;;;;6.87;3.60;;;;;;;6.74;53.16;96714.89;1757382;81;21122;-66
2022/02/27 10:55:13;;;;;;;7.40;3.50;;;;;;;7.12;51.43;96705.34;1758967;81;21042;-66
2022/02/27 10:57:47;;;;;;;7.10;3.60;;;;;;;7.46;49.98;96704.02;1741424;81;21031;-66
2022/02/27 11:00:34;;;;;;;4.77;3.50;;;;;;;7.71;46.42;96701.22;1730393;83;21422;-66
2022/02/27 11:03:07;;;;;;;7.50;3.80;;;;;;;7.74;46.18;96693.36;1730283;82;21022;-66
2022/02/27 11:05:41;;;;;;;5.50;3.92;;;;;;;8.09;45.06;96693.22;1730398;82;21004;-66
2022/02/27 11:08:11;;;;;;;5.47;3.45;;;;;;;8.36;45.90;96682.93;1730372;82;21022;-66
2022/02/27 11:10:40;;;;;;;3.98;2.80;;;;;;;8.64;47.86;96684.48;1730202;82;20994;-66
2022/02/27 11:13:11;;;;;;;4.58;3.27;;;;;;;8.92;43.37;96682.00;1730210;82;21106;-66
2022/02/27 11:15:39;;;;;;;5.83;3.45;;;;;;;9.24;42.57;96671.63;1742542;82;20975;-66
2022/02/27 11:18:07;;;;;;;5.00;3.42;;;;;;;9.62;43.26;96666.92;1730347;82;21030;-66
2022/02/27 11:20:35;;;;;;;6.35;3.92;;;;;;;9.82;41.26;96663.00;1730245;83;21038;-66
2022/02/27 11:23:02;;;;;;;5.50;3.33;;;;;;;9.92;42.74;96659.05;1730348;82;21084;-66
2022/02/27 11:25:30;;;;;;;5.70;3.67;;;;;;;10.34;42.46;96648.11;1730096;82;21034;-66
2022/02/27 11:28:12;;;;;;;4.62;3.08;;;;;;;10.46;41.28;96646.33;1730238;83;21065;-66